sensor_id;sensor_type;location;lat;lon;timestamp;temperature;humidity
32139;DHT22;18644;48.700;9.210;2023-03-08T00:02:17;7.00;46.30
32139;DHT22;18644;48.700;9.210;2023-03-08T00:04:44;7.00;46.40
32139;DHT22;18644;48.700;9.210;2023-03-08T00:07:11;7.00;46.50
32139;DHT22;18644;48.700;9.210;2023-03-08T00:09:38;6.90;46.60
32139;DHT22;18644;48.700;9.210;2023-03-08T00:12:05;7.00;46.70
32139;DHT22;18644;48.700;9.210;2023-03-08T00:14:36;7.00;46.90
32139;DHT22;18644;48.700;9.210;2023-03-08T00:17:03;7.00;46.90
32139;DHT22;18644;48.700;9.210;2023-03-08T00:19:30;7.00;47.00
32139;DHT22;18644;48.700;9.210;2023-03-08T00:21:57;7.00;47.00
32139;DHT22;18644;48.700;9.210;2023-03-08T00:24:24;7.00;47.10
32139;DHT22;18644;48.700;9.210;2023-03-08T00:26:51;7.00;47.10
32139;DHT22;18644;48.700;9.210;2023-03-08T00:29:18;7.00;47.20
32139;DHT22;18644;48.700;9.210;2023-03-08T00:31:46;7.00;47.10
32139;DHT22;18644;48.700;9.210;2023-03-08T00:34:14;7.00;47.20
32139;DHT22;18644;48.700;9.210;2023-03-08T00:36:41;7.10;47.20
32139;DHT22;18644;48.700;9.210;2023-03-08T00:39:08;7.00;47.20
32139;DHT22;18644;48.700;9.210;2023-03-08T00:41:35;7.10;47.30
32139;DHT22;18644;48.700;9.210;2023-03-08T00:44:02;7.00;47.20
32139;DHT22;18644;48.700;9.210;2023-03-08T00:46:30;7.10;47.20
32139;DHT22;18644;48.700;9.210;2023-03-08T00:48:58;7.10;47.20
32139;DHT22;18644;48.700;9.210;2023-03-08T00:51:25;7.10;47.20
32139;DHT22;18644;48.700;9.210;2023-03-08T00:53:52;7.00;47.10
32139;DHT22;18644;48.700;9.210;2023-03-08T00:56:19;7.00;47.10
32139;DHT22;18644;48.700;9.210;2023-03-08T00:58:46;7.00;47.10
32139;DHT22;18644;48.700;9.210;2023-03-08T01:01:14;7.00;47.10
32139;DHT22;18644;48.700;9.210;2023-03-08T01:03:43;7.00;47.10
32139;DHT22;18644;48.700;9.210;2023-03-08T01:06:13;6.90;47.10
32139;DHT22;18644;48.700;9.210;2023-03-08T01:08:40;6.90;47.10
32139;DHT22;18644;48.700;9.210;2023-03-08T01:11:14;6.90;47.10
32139;DHT22;18644;48.700;9.210;2023-03-08T01:13:42;6.80;47.10
32139;DHT22;18644;48.700;9.210;2023-03-08T01:16:15;6.80;47.00
32139;DHT22;18644;48.700;9.210;2023-03-08T01:18:43;6.70;47.00
32139;DHT22;18644;48.700;9.210;2023-03-08T01:21:12;6.70;47.10
32139;DHT22;18644;48.700;9.210;2023-03-08T01:23:40;6.70;47.20
32139;DHT22;18644;48.700;9.210;2023-03-08T01:26:09;6.60;47.20
32139;DHT22;18644;48.700;9.210;2023-03-08T01:28:38;6.60;47.30
32139;DHT22;18644;48.700;9.210;2023-03-08T01:31:07;6.50;47.30
32139;DHT22;18644;48.700;9.210;2023-03-08T01:33:34;6.50;47.30
32139;DHT22;18644;48.700;9.210;2023-03-08T01:36:02;6.50;47.40
32139;DHT22;18644;48.700;9.210;2023-03-08T01:38:31;6.40;47.40
32139;DHT22;18644;48.700;9.210;2023-03-08T01:40:59;6.50;47.50
32139;DHT22;18644;48.700;9.210;2023-03-08T01:43:29;6.40;47.40
32139;DHT22;18644;48.700;9.210;2023-03-08T01:46:18;6.40;47.40
32139;DHT22;18644;48.700;9.210;2023-03-08T01:48:52;6.30;47.50
32139;DHT22;18644;48.700;9.210;2023-03-08T01:51:27;6.30;47.50
32139;DHT22;18644;48.700;9.210;2023-03-08T01:54:00;6.20;47.40
32139;DHT22;18644;48.700;9.210;2023-03-08T01:56:28;6.20;47.50
32139;DHT22;18644;48.700;9.210;2023-03-08T01:58:56;6.10;47.50
32139;DHT22;18644;48.700;9.210;2023-03-08T02:01:24;6.10;47.60
32139;DHT22;18644;48.700;9.210;2023-03-08T02:03:51;6.00;47.60
32139;DHT22;18644;48.700;9.210;2023-03-08T02:06:19;6.00;47.70
32139;DHT22;18644;48.700;9.210;2023-03-08T02:08:47;6.00;47.70
32139;DHT22;18644;48.700;9.210;2023-03-08T02:11:16;5.90;47.80
32139;DHT22;18644;48.700;9.210;2023-03-08T02:13:44;5.90;47.90
32139;DHT22;18644;48.700;9.210;2023-03-08T02:16:13;5.90;48.00
32139;DHT22;18644;48.700;9.210;2023-03-08T02:18:51;5.80;48.10
32139;DHT22;18644;48.700;9.210;2023-03-08T02:21:19;5.80;48.20
32139;DHT22;18644;48.700;9.210;2023-03-08T02:23:47;5.80;48.20
32139;DHT22;18644;48.700;9.210;2023-03-08T02:26:15;5.80;48.40
32139;DHT22;18644;48.700;9.210;2023-03-08T02:28:43;5.80;48.40
32139;DHT22;18644;48.700;9.210;2023-03-08T02:31:12;5.80;48.50
32139;DHT22;18644;48.700;9.210;2023-03-08T02:33:39;5.80;48.60
32139;DHT22;18644;48.700;9.210;2023-03-08T02:36:07;5.80;48.60
32139;DHT22;18644;48.700;9.210;2023-03-08T02:38:36;5.80;48.70
32139;DHT22;18644;48.700;9.210;2023-03-08T02:41:04;5.80;48.80
32139;DHT22;18644;48.700;9.210;2023-03-08T02:43:32;5.90;48.80
32139;DHT22;18644;48.700;9.210;2023-03-08T02:45:58;5.90;48.80
32139;DHT22;18644;48.700;9.210;2023-03-08T02:48:25;5.90;48.80
32139;DHT22;18644;48.700;9.210;2023-03-08T02:50:52;5.90;48.90
32139;DHT22;18644;48.700;9.210;2023-03-08T02:53:19;5.90;48.90
32139;DHT22;18644;48.700;9.210;2023-03-08T02:55:46;5.90;49.00
32139;DHT22;18644;48.700;9.210;2023-03-08T02:58:14;5.90;48.90
32139;DHT22;18644;48.700;9.210;2023-03-08T03:00:41;6.00;49.00
32139;DHT22;18644;48.700;9.210;2023-03-08T03:03:08;6.00;49.00
32139;DHT22;18644;48.700;9.210;2023-03-08T03:05:40;6.00;49.00
32139;DHT22;18644;48.700;9.210;2023-03-08T03:08:08;6.10;49.10
32139;DHT22;18644;48.700;9.210;2023-03-08T03:10:36;6.10;49.10
32139;DHT22;18644;48.700;9.210;2023-03-08T03:13:04;6.10;49.10
32139;DHT22;18644;48.700;9.210;2023-03-08T03:15:35;6.10;49.10
32139;DHT22;18644;48.700;9.210;2023-03-08T03:18:03;6.10;49.00
32139;DHT22;18644;48.700;9.210;2023-03-08T03:20:30;6.20;49.10
32139;DHT22;18644;48.700;9.210;2023-03-08T03:22:57;6.20;49.00
32139;DHT22;18644;48.700;9.210;2023-03-08T03:25:24;6.20;49.00
32139;DHT22;18644;48.700;9.210;2023-03-08T03:27:53;6.20;49.00
32139;DHT22;18644;48.700;9.210;2023-03-08T03:30:20;6.30;49.10
32139;DHT22;18644;48.700;9.210;2023-03-08T03:32:48;6.30;49.10
32139;DHT22;18644;48.700;9.210;2023-03-08T03:35:15;6.30;49.10
32139;DHT22;18644;48.700;9.210;2023-03-08T03:37:42;6.30;49.10
32139;DHT22;18644;48.700;9.210;2023-03-08T03:40:10;6.30;49.00
32139;DHT22;18644;48.700;9.210;2023-03-08T03:42:38;6.40;49.10
32139;DHT22;18644;48.700;9.210;2023-03-08T03:45:06;6.40;49.10
32139;DHT22;18644;48.700;9.210;2023-03-08T03:47:33;6.40;49.10
32139;DHT22;18644;48.700;9.210;2023-03-08T03:50:01;6.40;49.00
32139;DHT22;18644;48.700;9.210;2023-03-08T03:52:28;6.40;49.00
32139;DHT22;18644;48.700;9.210;2023-03-08T03:54:55;6.40;49.00
32139;DHT22;18644;48.700;9.210;2023-03-08T03:57:22;6.40;49.00
32139;DHT22;18644;48.700;9.210;2023-03-08T03:59:49;6.40;49.00
32139;DHT22;18644;48.700;9.210;2023-03-08T04:02:16;6.40;48.90
32139;DHT22;18644;48.700;9.210;2023-03-08T04:04:43;6.50;49.00
32139;DHT22;18644;48.700;9.210;2023-03-08T04:07:11;6.50;49.00
32139;DHT22;18644;48.700;9.210;2023-03-08T04:09:38;6.50;49.00
32139;DHT22;18644;48.700;9.210;2023-03-08T04:12:06;6.50;49.00
32139;DHT22;18644;48.700;9.210;2023-03-08T04:14:34;6.50;48.90
32139;DHT22;18644;48.700;9.210;2023-03-08T04:17:03;6.50;48.90
32139;DHT22;18644;48.700;9.210;2023-03-08T04:19:33;6.50;48.90
32139;DHT22;18644;48.700;9.210;2023-03-08T04:22:00;6.50;48.90
32139;DHT22;18644;48.700;9.210;2023-03-08T04:24:28;6.50;48.90
32139;DHT22;18644;48.700;9.210;2023-03-08T04:26:55;6.50;48.90
32139;DHT22;18644;48.700;9.210;2023-03-08T04:29:23;6.50;48.90
32139;DHT22;18644;48.700;9.210;2023-03-08T04:31:50;6.50;48.90
32139;DHT22;18644;48.700;9.210;2023-03-08T04:34:17;6.40;49.00
32139;DHT22;18644;48.700;9.210;2023-03-08T04:36:43;6.40;49.00
32139;DHT22;18644;48.700;9.210;2023-03-08T04:39:10;6.40;49.10
32139;DHT22;18644;48.700;9.210;2023-03-08T04:41:39;6.40;49.10
32139;DHT22;18644;48.700;9.210;2023-03-08T04:44:06;6.40;49.10
32139;DHT22;18644;48.700;9.210;2023-03-08T04:46:33;6.40;49.10
32139;DHT22;18644;48.700;9.210;2023-03-08T04:49:00;6.40;49.10
32139;DHT22;18644;48.700;9.210;2023-03-08T04:51:26;6.40;49.20
32139;DHT22;18644;48.700;9.210;2023-03-08T04:53:53;6.50;49.20
32139;DHT22;18644;48.700;9.210;2023-03-08T04:56:20;6.50;49.30
32139;DHT22;18644;48.700;9.210;2023-03-08T04:58:49;6.50;49.30
32139;DHT22;18644;48.700;9.210;2023-03-08T05:01:17;6.50;49.30
32139;DHT22;18644;48.700;9.210;2023-03-08T05:03:46;6.50;49.30
32139;DHT22;18644;48.700;9.210;2023-03-08T05:06:14;6.50;49.30
32139;DHT22;18644;48.700;9.210;2023-03-08T05:08:41;6.50;49.30
32139;DHT22;18644;48.700;9.210;2023-03-08T05:11:09;6.50;49.90
32139;DHT22;18644;48.700;9.210;2023-03-08T05:13:37;6.60;49.30
32139;DHT22;18644;48.700;9.210;2023-03-08T05:16:06;6.50;49.30
32139;DHT22;18644;48.700;9.210;2023-03-08T05:18:34;6.60;49.40
32139;DHT22;18644;48.700;9.210;2023-03-08T05:21:03;6.60;49.40
32139;DHT22;18644;48.700;9.210;2023-03-08T05:23:32;6.60;49.40
32139;DHT22;18644;48.700;9.210;2023-03-08T05:26:00;6.60;49.40
32139;DHT22;18644;48.700;9.210;2023-03-08T05:28:30;6.60;49.40
32139;DHT22;18644;48.700;9.210;2023-03-08T05:31:02;6.70;49.50
32139;DHT22;18644;48.700;9.210;2023-03-08T05:33:31;6.70;49.50
32139;DHT22;18644;48.700;9.210;2023-03-08T05:35:59;6.70;49.50
32139;DHT22;18644;48.700;9.210;2023-03-08T05:38:26;6.70;49.50
32139;DHT22;18644;48.700;9.210;2023-03-08T05:40:53;6.70;49.50
32139;DHT22;18644;48.700;9.210;2023-03-08T05:43:20;6.80;49.50
32139;DHT22;18644;48.700;9.210;2023-03-08T05:45:54;6.80;50.10
32139;DHT22;18644;48.700;9.210;2023-03-08T05:48:23;6.80;49.50
32139;DHT22;18644;48.700;9.210;2023-03-08T05:50:51;6.80;49.50
32139;DHT22;18644;48.700;9.210;2023-03-08T05:53:19;6.80;49.50
32139;DHT22;18644;48.700;9.210;2023-03-08T05:55:46;6.90;49.50
32139;DHT22;18644;48.700;9.210;2023-03-08T05:58:14;6.90;49.50
32139;DHT22;18644;48.700;9.210;2023-03-08T06:00:41;6.90;49.60
32139;DHT22;18644;48.700;9.210;2023-03-08T06:03:08;6.90;49.70
32139;DHT22;18644;48.700;9.210;2023-03-08T06:05:35;6.90;49.60
32139;DHT22;18644;48.700;9.210;2023-03-08T06:08:04;7.00;49.70
32139;DHT22;18644;48.700;9.210;2023-03-08T06:10:31;7.00;49.70
32139;DHT22;18644;48.700;9.210;2023-03-08T06:12:58;7.00;49.70
32139;DHT22;18644;48.700;9.210;2023-03-08T06:15:25;7.00;49.80
32139;DHT22;18644;48.700;9.210;2023-03-08T06:17:52;7.00;49.70
32139;DHT22;18644;48.700;9.210;2023-03-08T06:20:19;7.00;49.70
32139;DHT22;18644;48.700;9.210;2023-03-08T06:22:46;7.10;49.80
32139;DHT22;18644;48.700;9.210;2023-03-08T06:25:15;7.00;49.80
32139;DHT22;18644;48.700;9.210;2023-03-08T06:27:42;7.10;49.80
32139;DHT22;18644;48.700;9.210;2023-03-08T06:30:10;7.10;49.80
32139;DHT22;18644;48.700;9.210;2023-03-08T06:32:37;7.10;49.80
32139;DHT22;18644;48.700;9.210;2023-03-08T06:35:05;7.10;49.90
32139;DHT22;18644;48.700;9.210;2023-03-08T06:37:32;7.10;49.90
32139;DHT22;18644;48.700;9.210;2023-03-08T06:40:00;7.10;49.80
32139;DHT22;18644;48.700;9.210;2023-03-08T06:42:30;7.20;49.90
32139;DHT22;18644;48.700;9.210;2023-03-08T06:44:57;7.20;49.90
32139;DHT22;18644;48.700;9.210;2023-03-08T06:47:24;7.20;49.90
32139;DHT22;18644;48.700;9.210;2023-03-08T06:49:53;7.20;49.90
32139;DHT22;18644;48.700;9.210;2023-03-08T06:52:19;7.20;49.90
32139;DHT22;18644;48.700;9.210;2023-03-08T06:54:46;7.30;50.00
32139;DHT22;18644;48.700;9.210;2023-03-08T06:57:13;7.30;50.00
32139;DHT22;18644;48.700;9.210;2023-03-08T06:59:41;7.30;50.00
32139;DHT22;18644;48.700;9.210;2023-03-08T07:02:09;7.40;50.00
32139;DHT22;18644;48.700;9.210;2023-03-08T07:04:36;7.40;50.00
32139;DHT22;18644;48.700;9.210;2023-03-08T07:07:03;7.40;50.10
32139;DHT22;18644;48.700;9.210;2023-03-08T07:09:32;7.40;50.10
32139;DHT22;18644;48.700;9.210;2023-03-08T07:11:59;7.40;50.10
32139;DHT22;18644;48.700;9.210;2023-03-08T07:14:26;7.50;50.10
32139;DHT22;18644;48.700;9.210;2023-03-08T07:16:54;7.50;50.10
32139;DHT22;18644;48.700;9.210;2023-03-08T07:19:21;7.60;50.10
32139;DHT22;18644;48.700;9.210;2023-03-08T07:21:48;7.60;50.10
32139;DHT22;18644;48.700;9.210;2023-03-08T07:24:14;7.60;50.10
32139;DHT22;18644;48.700;9.210;2023-03-08T07:26:41;7.70;50.10
32139;DHT22;18644;48.700;9.210;2023-03-08T07:29:08;7.70;50.10
32139;DHT22;18644;48.700;9.210;2023-03-08T07:31:35;7.70;50.10
32139;DHT22;18644;48.700;9.210;2023-03-08T07:34:03;7.80;50.10
32139;DHT22;18644;48.700;9.210;2023-03-08T07:36:31;7.80;50.10
32139;DHT22;18644;48.700;9.210;2023-03-08T07:38:58;7.80;50.10
32139;DHT22;18644;48.700;9.210;2023-03-08T07:41:25;7.90;50.30
32139;DHT22;18644;48.700;9.210;2023-03-08T07:43:54;7.90;50.30
32139;DHT22;18644;48.700;9.210;2023-03-08T07:46:21;8.00;50.30
32139;DHT22;18644;48.700;9.210;2023-03-08T07:48:50;8.00;50.40
32139;DHT22;18644;48.700;9.210;2023-03-08T07:51:19;8.00;50.30
32139;DHT22;18644;48.700;9.210;2023-03-08T07:53:45;8.10;50.50
32139;DHT22;18644;48.700;9.210;2023-03-08T07:56:12;8.10;50.50
32139;DHT22;18644;48.700;9.210;2023-03-08T07:58:39;8.20;50.50
32139;DHT22;18644;48.700;9.210;2023-03-08T08:01:07;8.20;50.50
32139;DHT22;18644;48.700;9.210;2023-03-08T08:03:35;8.20;50.60
32139;DHT22;18644;48.700;9.210;2023-03-08T08:06:03;8.30;50.70
32139;DHT22;18644;48.700;9.210;2023-03-08T08:08:32;8.30;50.80
32139;DHT22;18644;48.700;9.210;2023-03-08T08:10:59;8.30;50.80
32139;DHT22;18644;48.700;9.210;2023-03-08T08:13:26;8.40;51.00
32139;DHT22;18644;48.700;9.210;2023-03-08T08:15:57;8.40;51.10
32139;DHT22;18644;48.700;9.210;2023-03-08T08:18:24;8.40;51.10
32139;DHT22;18644;48.700;9.210;2023-03-08T08:20:59;8.50;51.20
32139;DHT22;18644;48.700;9.210;2023-03-08T08:23:27;8.50;51.30
32139;DHT22;18644;48.700;9.210;2023-03-08T08:25:55;8.50;51.20
32139;DHT22;18644;48.700;9.210;2023-03-08T08:28:23;8.60;51.30
32139;DHT22;18644;48.700;9.210;2023-03-08T08:30:57;8.60;51.20
32139;DHT22;18644;48.700;9.210;2023-03-08T08:33:26;8.70;51.10
32139;DHT22;18644;48.700;9.210;2023-03-08T08:35:53;8.70;50.80
32139;DHT22;18644;48.700;9.210;2023-03-08T08:38:20;8.70;50.60
32139;DHT22;18644;48.700;9.210;2023-03-08T08:40:47;8.70;50.60
32139;DHT22;18644;48.700;9.210;2023-03-08T08:43:15;8.70;50.50
32139;DHT22;18644;48.700;9.210;2023-03-08T08:45:43;8.80;50.70
32139;DHT22;18644;48.700;9.210;2023-03-08T08:48:10;8.80;50.70
32139;DHT22;18644;48.700;9.210;2023-03-08T08:50:37;8.80;50.60
32139;DHT22;18644;48.700;9.210;2023-03-08T08:53:04;8.80;50.70
32139;DHT22;18644;48.700;9.210;2023-03-08T08:55:31;8.90;50.90
32139;DHT22;18644;48.700;9.210;2023-03-08T08:57:59;8.90;51.00
32139;DHT22;18644;48.700;9.210;2023-03-08T09:00:27;8.90;51.10
32139;DHT22;18644;48.700;9.210;2023-03-08T09:02:54;9.00;51.40
32139;DHT22;18644;48.700;9.210;2023-03-08T09:05:21;9.10;51.10
32139;DHT22;18644;48.700;9.210;2023-03-08T09:07:48;9.10;51.00
32139;DHT22;18644;48.700;9.210;2023-03-08T09:10:15;9.10;51.00
32139;DHT22;18644;48.700;9.210;2023-03-08T09:12:42;9.20;51.10
32139;DHT22;18644;48.700;9.210;2023-03-08T09:15:10;9.20;51.00
32139;DHT22;18644;48.700;9.210;2023-03-08T09:17:38;9.20;50.60
32139;DHT22;18644;48.700;9.210;2023-03-08T09:20:06;9.30;50.50
32139;DHT22;18644;48.700;9.210;2023-03-08T09:22:34;9.30;50.20
32139;DHT22;18644;48.700;9.210;2023-03-08T09:25:01;9.30;50.00
32139;DHT22;18644;48.700;9.210;2023-03-08T09:27:29;9.40;50.10
32139;DHT22;18644;48.700;9.210;2023-03-08T09:29:56;9.40;50.00
32139;DHT22;18644;48.700;9.210;2023-03-08T09:32:23;9.40;50.00
32139;DHT22;18644;48.700;9.210;2023-03-08T09:34:52;9.40;50.20
32139;DHT22;18644;48.700;9.210;2023-03-08T09:37:20;9.40;50.40
32139;DHT22;18644;48.700;9.210;2023-03-08T09:39:49;9.40;50.40
32139;DHT22;18644;48.700;9.210;2023-03-08T09:42:19;9.50;50.30
32139;DHT22;18644;48.700;9.210;2023-03-08T09:45:02;9.50;50.30
32139;DHT22;18644;48.700;9.210;2023-03-08T09:47:38;9.50;50.20
32139;DHT22;18644;48.700;9.210;2023-03-08T09:50:24;9.50;50.20
32139;DHT22;18644;48.700;9.210;2023-03-08T09:53:01;9.60;50.50
32139;DHT22;18644;48.700;9.210;2023-03-08T09:55:32;9.60;50.60
32139;DHT22;18644;48.700;9.210;2023-03-08T09:58:03;9.60;50.70
32139;DHT22;18644;48.700;9.210;2023-03-08T10:00:34;9.70;51.00
32139;DHT22;18644;48.700;9.210;2023-03-08T10:06:25;9.90;51.40
32139;DHT22;18644;48.700;9.210;2023-03-08T10:09:01;10.00;51.40
32139;DHT22;18644;48.700;9.210;2023-03-08T10:11:34;10.10;51.40
32139;DHT22;18644;48.700;9.210;2023-03-08T10:14:12;10.20;51.50
32139;DHT22;18644;48.700;9.210;2023-03-08T10:16:47;10.30;51.60
32139;DHT22;18644;48.700;9.210;2023-03-08T10:19:20;10.40;51.60
32139;DHT22;18644;48.700;9.210;2023-03-08T10:21:50;10.50;51.80
32139;DHT22;18644;48.700;9.210;2023-03-08T10:24:22;10.60;51.90
32139;DHT22;18644;48.700;9.210;2023-03-08T10:26:52;10.70;52.10
32139;DHT22;18644;48.700;9.210;2023-03-08T10:29:19;10.90;52.10
32139;DHT22;18644;48.700;9.210;2023-03-08T10:31:46;10.90;52.20
32139;DHT22;18644;48.700;9.210;2023-03-08T10:34:15;11.00;52.40
32139;DHT22;18644;48.700;9.210;2023-03-08T10:36:50;11.10;52.60
32139;DHT22;18644;48.700;9.210;2023-03-08T10:39:18;11.20;52.80
32139;DHT22;18644;48.700;9.210;2023-03-08T10:41:48;11.30;52.90
32139;DHT22;18644;48.700;9.210;2023-03-08T10:44:29;11.40;53.30
32139;DHT22;18644;48.700;9.210;2023-03-08T10:47:17;11.50;53.70
32139;DHT22;18644;48.700;9.210;2023-03-08T10:49:45;11.70;54.00
32139;DHT22;18644;48.700;9.210;2023-03-08T10:52:26;11.80;54.10
32139;DHT22;18644;48.700;9.210;2023-03-08T10:55:01;12.10;54.50
32139;DHT22;18644;48.700;9.210;2023-03-08T10:57:29;12.20;54.50
32139;DHT22;18644;48.700;9.210;2023-03-08T11:00:03;12.40;54.30
32139;DHT22;18644;48.700;9.210;2023-03-08T11:02:38;12.60;54.30
32139;DHT22;18644;48.700;9.210;2023-03-08T11:05:17;12.70;54.30
32139;DHT22;18644;48.700;9.210;2023-03-08T11:07:52;12.90;54.20
32139;DHT22;18644;48.700;9.210;2023-03-08T11:10:22;13.10;54.50
32139;DHT22;18644;48.700;9.210;2023-03-08T11:13:00;13.20;53.80
32139;DHT22;18644;48.700;9.210;2023-03-08T11:15:29;13.30;53.90
32139;DHT22;18644;48.700;9.210;2023-03-08T11:18:05;13.40;53.70
32139;DHT22;18644;48.700;9.210;2023-03-08T11:20:43;13.50;53.90
32139;DHT22;18644;48.700;9.210;2023-03-08T11:23:19;13.60;54.10
32139;DHT22;18644;48.700;9.210;2023-03-08T11:25:57;13.80;54.10
32139;DHT22;18644;48.700;9.210;2023-03-08T11:28:48;13.80;53.80
32139;DHT22;18644;48.700;9.210;2023-03-08T11:31:26;14.00;53.60
32139;DHT22;18644;48.700;9.210;2023-03-08T11:34:17;14.10;53.40
32139;DHT22;18644;48.700;9.210;2023-03-08T11:36:57;14.20;53.50
32139;DHT22;18644;48.700;9.210;2023-03-08T11:39:32;14.20;53.20
32139;DHT22;18644;48.700;9.210;2023-03-08T11:42:05;14.30;53.20
32139;DHT22;18644;48.700;9.210;2023-03-08T11:44:48;14.40;53.30
32139;DHT22;18644;48.700;9.210;2023-03-08T11:47:39;14.40;53.00
32139;DHT22;18644;48.700;9.210;2023-03-08T11:50:28;14.50;52.90
32139;DHT22;18644;48.700;9.210;2023-03-08T11:53:04;14.50;52.90
32139;DHT22;18644;48.700;9.210;2023-03-08T11:55:50;14.60;52.90
32139;DHT22;18644;48.700;9.210;2023-03-08T11:58:36;14.60;52.70
32139;DHT22;18644;48.700;9.210;2023-03-08T12:01:08;14.70;52.70
32139;DHT22;18644;48.700;9.210;2023-03-08T12:03:43;14.70;52.70
32139;DHT22;18644;48.700;9.210;2023-03-08T12:06:14;14.70;52.60
32139;DHT22;18644;48.700;9.210;2023-03-08T12:08:45;14.80;52.70
32139;DHT22;18644;48.700;9.210;2023-03-08T12:11:20;14.70;52.50
32139;DHT22;18644;48.700;9.210;2023-03-08T12:13:51;14.80;52.50
32139;DHT22;18644;48.700;9.210;2023-03-08T12:16:22;14.80;52.60
32139;DHT22;18644;48.700;9.210;2023-03-08T12:18:55;14.80;52.60
32139;DHT22;18644;48.700;9.210;2023-03-08T12:21:34;14.80;52.50
32139;DHT22;18644;48.700;9.210;2023-03-08T12:24:23;14.80;52.40
32139;DHT22;18644;48.700;9.210;2023-03-08T12:27:02;14.90;52.60
32139;DHT22;18644;48.700;9.210;2023-03-08T12:29:36;14.90;52.80
32139;DHT22;18644;48.700;9.210;2023-03-08T12:32:05;14.90;52.70
32139;DHT22;18644;48.700;9.210;2023-03-08T12:34:37;14.90;52.80
32139;DHT22;18644;48.700;9.210;2023-03-08T12:37:19;15.00;52.90
32139;DHT22;18644;48.700;9.210;2023-03-08T12:39:59;15.10;52.80
32139;DHT22;18644;48.700;9.210;2023-03-08T12:42:36;15.10;52.60
32139;DHT22;18644;48.700;9.210;2023-03-08T12:45:24;15.20;52.70
32139;DHT22;18644;48.700;9.210;2023-03-08T12:47:57;15.20;52.70
32139;DHT22;18644;48.700;9.210;2023-03-08T12:50:27;15.30;52.70
32139;DHT22;18644;48.700;9.210;2023-03-08T12:52:54;15.30;52.60
32139;DHT22;18644;48.700;9.210;2023-03-08T12:55:26;15.40;52.50
32139;DHT22;18644;48.700;9.210;2023-03-08T12:58:00;15.40;52.40
32139;DHT22;18644;48.700;9.210;2023-03-08T13:00:30;15.40;52.20
32139;DHT22;18644;48.700;9.210;2023-03-08T13:02:59;15.40;52.20
32139;DHT22;18644;48.700;9.210;2023-03-08T13:05:31;15.50;52.40
32139;DHT22;18644;48.700;9.210;2023-03-08T13:08:18;15.50;52.40
32139;DHT22;18644;48.700;9.210;2023-03-08T13:10:58;15.50;52.40
32139;DHT22;18644;48.700;9.210;2023-03-08T13:13:38;15.60;52.30
32139;DHT22;18644;48.700;9.210;2023-03-08T13:16:22;15.60;52.30
32139;DHT22;18644;48.700;9.210;2023-03-08T13:19:06;15.60;52.40
32139;DHT22;18644;48.700;9.210;2023-03-08T13:21:47;15.60;52.30
32139;DHT22;18644;48.700;9.210;2023-03-08T13:24:21;15.60;52.40
32139;DHT22;18644;48.700;9.210;2023-03-08T13:27:11;15.70;52.50
32139;DHT22;18644;48.700;9.210;2023-03-08T13:29:44;15.70;52.50
32139;DHT22;18644;48.700;9.210;2023-03-08T13:32:14;15.80;52.30
32139;DHT22;18644;48.700;9.210;2023-03-08T13:34:42;15.80;52.20
32139;DHT22;18644;48.700;9.210;2023-03-08T13:37:21;15.80;52.10
32139;DHT22;18644;48.700;9.210;2023-03-08T13:39:53;15.80;52.10
32139;DHT22;18644;48.700;9.210;2023-03-08T13:42:23;15.80;52.20
32139;DHT22;18644;48.700;9.210;2023-03-08T13:45:05;15.80;52.20
32139;DHT22;18644;48.700;9.210;2023-03-08T13:47:36;15.80;52.20
32139;DHT22;18644;48.700;9.210;2023-03-08T13:50:05;15.80;52.10
32139;DHT22;18644;48.700;9.210;2023-03-08T13:52:35;15.80;52.10
32139;DHT22;18644;48.700;9.210;2023-03-08T13:55:06;15.80;52.10
32139;DHT22;18644;48.700;9.210;2023-03-08T13:57:36;15.80;52.00
32139;DHT22;18644;48.700;9.210;2023-03-08T14:00:25;15.80;52.10
32139;DHT22;18644;48.700;9.210;2023-03-08T14:02:54;15.80;52.30
32139;DHT22;18644;48.700;9.210;2023-03-08T14:05:24;15.90;52.40
32139;DHT22;18644;48.700;9.210;2023-03-08T14:07:59;16.00;52.50
32139;DHT22;18644;48.700;9.210;2023-03-08T14:10:34;16.10;52.60
32139;DHT22;18644;48.700;9.210;2023-03-08T14:13:03;16.20;52.40
32139;DHT22;18644;48.700;9.210;2023-03-08T14:15:34;16.20;52.20
32139;DHT22;18644;48.700;9.210;2023-03-08T14:18:04;16.30;52.00
32139;DHT22;18644;48.700;9.210;2023-03-08T14:20:58;16.40;51.90
32139;DHT22;18644;48.700;9.210;2023-03-08T14:23:26;16.40;51.50
32139;DHT22;18644;48.700;9.210;2023-03-08T14:25:57;16.40;51.30
32139;DHT22;18644;48.700;9.210;2023-03-08T14:28:34;16.30;51.10
32139;DHT22;18644;48.700;9.210;2023-03-08T14:36:24;16.30;51.20
32139;DHT22;18644;48.700;9.210;2023-03-08T14:38:52;16.30;51.20
32139;DHT22;18644;48.700;9.210;2023-03-08T14:41:29;16.20;51.20
32139;DHT22;18644;48.700;9.210;2023-03-08T14:44:22;16.20;51.30
32139;DHT22;18644;48.700;9.210;2023-03-08T14:47:19;16.20;51.40
32139;DHT22;18644;48.700;9.210;2023-03-08T14:49:54;16.20;51.70
32139;DHT22;18644;48.700;9.210;2023-03-08T14:52:26;16.20;51.80
32139;DHT22;18644;48.700;9.210;2023-03-08T14:54:54;16.20;52.00
32139;DHT22;18644;48.700;9.210;2023-03-08T14:57:25;16.20;52.10
32139;DHT22;18644;48.700;9.210;2023-03-08T15:00:03;16.20;52.30
32139;DHT22;18644;48.700;9.210;2023-03-08T15:02:39;16.20;52.40
32139;DHT22;18644;48.700;9.210;2023-03-08T15:05:11;16.20;52.30
32139;DHT22;18644;48.700;9.210;2023-03-08T15:07:39;16.20;52.30
32139;DHT22;18644;48.700;9.210;2023-03-08T15:10:08;16.20;52.40
32139;DHT22;18644;48.700;9.210;2023-03-08T15:12:42;16.20;52.40
32139;DHT22;18644;48.700;9.210;2023-03-08T15:15:12;16.30;52.60
32139;DHT22;18644;48.700;9.210;2023-03-08T15:17:41;16.20;52.40
32139;DHT22;18644;48.700;9.210;2023-03-08T15:20:17;16.20;52.30
32139;DHT22;18644;48.700;9.210;2023-03-08T15:22:53;16.30;52.60
32139;DHT22;18644;48.700;9.210;2023-03-08T15:25:23;16.30;52.60
32139;DHT22;18644;48.700;9.210;2023-03-08T15:27:51;16.20;52.60
32139;DHT22;18644;48.700;9.210;2023-03-08T15:30:21;16.20;52.50
32139;DHT22;18644;48.700;9.210;2023-03-08T15:32:50;16.30;52.50
32139;DHT22;18644;48.700;9.210;2023-03-08T15:35:18;16.30;52.40
32139;DHT22;18644;48.700;9.210;2023-03-08T15:37:45;16.20;52.30
32139;DHT22;18644;48.700;9.210;2023-03-08T15:40:15;16.20;52.20
32139;DHT22;18644;48.700;9.210;2023-03-08T15:42:43;16.10;52.20
32139;DHT22;18644;48.700;9.210;2023-03-08T15:45:12;16.10;52.20
32139;DHT22;18644;48.700;9.210;2023-03-08T15:47:40;16.00;52.20
32139;DHT22;18644;48.700;9.210;2023-03-08T15:50:14;15.90;52.20
32139;DHT22;18644;48.700;9.210;2023-03-08T15:52:42;15.90;52.40
32139;DHT22;18644;48.700;9.210;2023-03-08T15:55:11;15.90;52.40
32139;DHT22;18644;48.700;9.210;2023-03-08T15:57:39;15.90;52.50
32139;DHT22;18644;48.700;9.210;2023-03-08T16:00:08;15.80;52.60
32139;DHT22;18644;48.700;9.210;2023-03-08T16:02:37;15.80;52.50
32139;DHT22;18644;48.700;9.210;2023-03-08T16:05:07;15.80;52.50
32139;DHT22;18644;48.700;9.210;2023-03-08T16:07:36;15.80;52.50
32139;DHT22;18644;48.700;9.210;2023-03-08T16:10:05;15.80;52.50